sensor_id;sensor_type;location;lat;lon;timestamp;P1;durP1;ratioP1;P2;durP2;ratioP2
7917;SDS011;4004;42.624;23.386;2022-09-30T00:00:35;9.37;;;6.53;;
7917;SDS011;4004;42.624;23.386;2022-09-30T00:03:02;11.47;;;7.83;;
7917;SDS011;4004;42.624;23.386;2022-09-30T00:05:29;11.37;;;7.17;;
7917;SDS011;4004;42.624;23.386;2022-09-30T00:07:57;7.93;;;6.63;;
7917;SDS011;4004;42.624;23.386;2022-09-30T00:10:24;9.33;;;5.73;;
7917;SDS011;4004;42.624;23.386;2022-09-30T00:12:51;7.53;;;5.87;;
7917;SDS011;4004;42.624;23.386;2022-09-30T00:15:18;10.03;;;6.13;;
7917;SDS011;4004;42.624;23.386;2022-09-30T00:17:45;6.63;;;5.93;;
7917;SDS011;4004;42.624;23.386;2022-09-30T00:20:12;8.63;;;6.77;;
7917;SDS011;4004;42.624;23.386;2022-09-30T00:22:40;12.23;;;8.27;;
7917;SDS011;4004;42.624;23.386;2022-09-30T00:25:10;10.07;;;7.70;;
7917;SDS011;4004;42.624;23.386;2022-09-30T00:27:37;7.73;;;6.90;;
7917;SDS011;4004;42.624;23.386;2022-09-30T00:30:04;8.83;;;7.50;;
7917;SDS011;4004;42.624;23.386;2022-09-30T00:32:31;10.17;;;6.23;;
7917;SDS011;4004;42.624;23.386;2022-09-30T00:34:58;8.67;;;7.57;;
7917;SDS011;4004;42.624;23.386;2022-09-30T00:37:25;9.73;;;6.73;;
7917;SDS011;4004;42.624;23.386;2022-09-30T00:39:52;8.37;;;6.87;;
7917;SDS011;4004;42.624;23.386;2022-09-30T00:42:20;7.50;;;6.57;;
7917;SDS011;4004;42.624;23.386;2022-09-30T00:44:48;7.27;;;6.37;;
7917;SDS011;4004;42.624;23.386;2022-09-30T00:47:30;6.67;;;5.97;;
7917;SDS011;4004;42.624;23.386;2022-09-30T00:50:05;8.83;;;6.60;;
7917;SDS011;4004;42.624;23.386;2022-09-30T00:52:41;7.73;;;6.23;;
7917;SDS011;4004;42.624;23.386;2022-09-30T00:55:14;10.10;;;7.23;;
7917;SDS011;4004;42.624;23.386;2022-09-30T00:57:51;7.93;;;7.23;;
7917;SDS011;4004;42.624;23.386;2022-09-30T01:00:19;7.43;;;6.73;;
7917;SDS011;4004;42.624;23.386;2022-09-30T01:02:46;9.37;;;6.57;;
7917;SDS011;4004;42.624;23.386;2022-09-30T01:05:15;6.57;;;5.80;;
7917;SDS011;4004;42.624;23.386;2022-09-30T01:07:42;7.00;;;6.17;;
7917;SDS011;4004;42.624;23.386;2022-09-30T01:10:09;10.17;;;6.57;;
7917;SDS011;4004;42.624;23.386;2022-09-30T01:12:36;8.50;;;6.23;;
7917;SDS011;4004;42.624;23.386;2022-09-30T01:15:06;7.27;;;6.47;;
7917;SDS011;4004;42.624;23.386;2022-09-30T01:17:35;7.47;;;6.67;;
7917;SDS011;4004;42.624;23.386;2022-09-30T01:20:26;7.37;;;6.67;;
7917;SDS011;4004;42.624;23.386;2022-09-30T01:23:29;7.73;;;6.60;;
7917;SDS011;4004;42.624;23.386;2022-09-30T01:26:20;11.10;;;7.83;;
7917;SDS011;4004;42.624;23.386;2022-09-30T01:29:18;7.57;;;6.83;;
7917;SDS011;4004;42.624;23.386;2022-09-30T01:32:22;7.77;;;7.03;;
7917;SDS011;4004;42.624;23.386;2022-09-30T01:35:00;9.60;;;7.23;;
7917;SDS011;4004;42.624;23.386;2022-09-30T01:37:37;9.10;;;7.03;;
7917;SDS011;4004;42.624;23.386;2022-09-30T01:40:16;7.57;;;6.97;;
7917;SDS011;4004;42.624;23.386;2022-09-30T01:42:52;7.57;;;6.87;;
7917;SDS011;4004;42.624;23.386;2022-09-30T01:45:28;7.87;;;7.07;;
7917;SDS011;4004;42.624;23.386;2022-09-30T01:48:02;9.73;;;7.70;;
7917;SDS011;4004;42.624;23.386;2022-09-30T01:50:35;10.13;;;8.30;;
7917;SDS011;4004;42.624;23.386;2022-09-30T01:53:13;8.20;;;7.40;;
7917;SDS011;4004;42.624;23.386;2022-09-30T01:55:47;8.10;;;7.30;;
7917;SDS011;4004;42.624;23.386;2022-09-30T01:58:20;8.67;;;7.83;;
7917;SDS011;4004;42.624;23.386;2022-09-30T02:00:54;7.87;;;6.83;;
7917;SDS011;4004;42.624;23.386;2022-09-30T02:03:28;7.53;;;6.87;;
7917;SDS011;4004;42.624;23.386;2022-09-30T02:05:59;6.83;;;6.23;;
7917;SDS011;4004;42.624;23.386;2022-09-30T02:08:32;7.80;;;7.00;;
7917;SDS011;4004;42.624;23.386;2022-09-30T02:11:06;8.57;;;6.60;;
7917;SDS011;4004;42.624;23.386;2022-09-30T02:13:38;8.30;;;6.70;;
7917;SDS011;4004;42.624;23.386;2022-09-30T02:16:11;8.13;;;6.53;;
7917;SDS011;4004;42.624;23.386;2022-09-30T02:18:44;11.43;;;6.47;;
7917;SDS011;4004;42.624;23.386;2022-09-30T02:21:16;9.33;;;6.10;;
7917;SDS011;4004;42.624;23.386;2022-09-30T02:23:52;9.60;;;6.33;;
7917;SDS011;4004;42.624;23.386;2022-09-30T02:26:24;8.77;;;6.13;;
7917;SDS011;4004;42.624;23.386;2022-09-30T02:28:55;9.47;;;6.33;;
7917;SDS011;4004;42.624;23.386;2022-09-30T02:31:28;7.00;;;5.60;;
7917;SDS011;4004;42.624;23.386;2022-09-30T02:34:00;6.97;;;6.23;;
7917;SDS011;4004;42.624;23.386;2022-09-30T02:36:32;9.50;;;7.23;;
7917;SDS011;4004;42.624;23.386;2022-09-30T02:39:04;9.47;;;7.30;;
7917;SDS011;4004;42.624;23.386;2022-09-30T02:41:37;8.27;;;6.87;;
7917;SDS011;4004;42.624;23.386;2022-09-30T02:44:08;8.03;;;7.23;;
7917;SDS011;4004;42.624;23.386;2022-09-30T02:46:38;8.30;;;7.43;;
7917;SDS011;4004;42.624;23.386;2022-09-30T02:49:15;8.40;;;6.83;;
7917;SDS011;4004;42.624;23.386;2022-09-30T02:51:52;7.37;;;6.60;;
7917;SDS011;4004;42.624;23.386;2022-09-30T02:54:36;9.43;;;7.80;;
7917;SDS011;4004;42.624;23.386;2022-09-30T02:57:14;8.20;;;7.10;;
7917;SDS011;4004;42.624;23.386;2022-09-30T02:59:45;7.67;;;6.80;;
7917;SDS011;4004;42.624;23.386;2022-09-30T03:02:13;8.23;;;6.57;;
7917;SDS011;4004;42.624;23.386;2022-09-30T03:04:41;7.57;;;6.77;;
7917;SDS011;4004;42.624;23.386;2022-09-30T03:07:10;14.40;;;7.80;;
7917;SDS011;4004;42.624;23.386;2022-09-30T03:09:37;8.50;;;7.70;;
7917;SDS011;4004;42.624;23.386;2022-09-30T03:12:07;8.33;;;7.53;;
7917;SDS011;4004;42.624;23.386;2022-09-30T03:14:44;9.70;;;7.53;;
7917;SDS011;4004;42.624;23.386;2022-09-30T03:20:38;10.93;;;7.43;;
7917;SDS011;4004;42.624;23.386;2022-09-30T03:23:16;8.93;;;7.50;;
7917;SDS011;4004;42.624;23.386;2022-09-30T03:25:55;8.73;;;7.90;;
7917;SDS011;4004;42.624;23.386;2022-09-30T03:28:32;9.33;;;7.13;;
7917;SDS011;4004;42.624;23.386;2022-09-30T03:31:03;11.33;;;7.70;;
7917;SDS011;4004;42.624;23.386;2022-09-30T03:33:42;9.10;;;8.20;;
7917;SDS011;4004;42.624;23.386;2022-09-30T03:36:17;9.80;;;8.10;;
7917;SDS011;4004;42.624;23.386;2022-09-30T03:38:52;8.93;;;7.93;;
7917;SDS011;4004;42.624;23.386;2022-09-30T03:41:31;12.33;;;7.47;;
7917;SDS011;4004;42.624;23.386;2022-09-30T03:44:06;11.37;;;8.33;;
7917;SDS011;4004;42.624;23.386;2022-09-30T03:46:39;9.00;;;7.50;;
7917;SDS011;4004;42.624;23.386;2022-09-30T03:49:12;9.87;;;8.50;;
7917;SDS011;4004;42.624;23.386;2022-09-30T03:51:43;9.37;;;8.40;;
7917;SDS011;4004;42.624;23.386;2022-09-30T03:54:10;10.83;;;8.70;;
7917;SDS011;4004;42.624;23.386;2022-09-30T03:56:39;14.70;;;8.93;;
7917;SDS011;4004;42.624;23.386;2022-09-30T03:59:08;10.97;;;9.87;;
7917;SDS011;4004;42.624;23.386;2022-09-30T04:01:37;15.97;;;10.57;;
7917;SDS011;4004;42.624;23.386;2022-09-30T04:04:05;13.00;;;11.53;;
7917;SDS011;4004;42.624;23.386;2022-09-30T04:06:32;25.87;;;11.53;;
7917;SDS011;4004;42.624;23.386;2022-09-30T04:09:00;16.67;;;11.83;;
7917;SDS011;4004;42.624;23.386;2022-09-30T04:11:27;12.77;;;11.27;;
7917;SDS011;4004;42.624;23.386;2022-09-30T04:13:53;63.57;;;13.80;;
7917;SDS011;4004;42.624;23.386;2022-09-30T04:16:20;65.20;;;14.97;;
7917;SDS011;4004;42.624;23.386;2022-09-30T04:18:47;43.57;;;14.80;;
7917;SDS011;4004;42.624;23.386;2022-09-30T04:21:14;58.33;;;15.33;;
7917;SDS011;4004;42.624;23.386;2022-09-30T04:23:41;68.10;;;16.03;;
7917;SDS011;4004;42.624;23.386;2022-09-30T04:26:10;32.33;;;16.93;;
7917;SDS011;4004;42.624;23.386;2022-09-30T04:28:38;198.67;;;21.13;;
7917;SDS011;4004;42.624;23.386;2022-09-30T04:31:05;124.73;;;17.33;;
7917;SDS011;4004;42.624;23.386;2022-09-30T04:33:32;60.87;;;17.00;;
7917;SDS011;4004;42.624;23.386;2022-09-30T04:36:00;22.20;;;16.63;;
7917;SDS011;4004;42.624;23.386;2022-09-30T04:38:27;38.37;;;18.00;;
7917;SDS011;4004;42.624;23.386;2022-09-30T04:40:55;31.50;;;17.23;;
7917;SDS011;4004;42.624;23.386;2022-09-30T04:43:24;93.23;;;18.83;;
7917;SDS011;4004;42.624;23.386;2022-09-30T04:45:51;62.13;;;20.63;;
7917;SDS011;4004;42.624;23.386;2022-09-30T04:48:18;41.63;;;18.83;;
7917;SDS011;4004;42.624;23.386;2022-09-30T04:50:46;160.73;;;21.03;;
7917;SDS011;4004;42.624;23.386;2022-09-30T04:53:14;100.83;;;17.47;;
7917;SDS011;4004;42.624;23.386;2022-09-30T04:55:41;82.63;;;18.27;;
7917;SDS011;4004;42.624;23.386;2022-09-30T04:58:08;39.07;;;16.40;;
7917;SDS011;4004;42.624;23.386;2022-09-30T05:00:37;37.63;;;18.13;;
7917;SDS011;4004;42.624;23.386;2022-09-30T05:03:04;129.53;;;19.00;;
7917;SDS011;4004;42.624;23.386;2022-09-30T05:05:31;41.73;;;17.43;;
7917;SDS011;4004;42.624;23.386;2022-09-30T05:07:59;142.23;;;17.50;;
7917;SDS011;4004;42.624;23.386;2022-09-30T05:10:26;69.93;;;20.23;;
7917;SDS011;4004;42.624;23.386;2022-09-30T05:12:54;68.60;;;16.43;;
7917;SDS011;4004;42.624;23.386;2022-09-30T05:15:22;89.93;;;16.67;;
7917;SDS011;4004;42.624;23.386;2022-09-30T05:17:50;70.00;;;17.90;;
7917;SDS011;4004;42.624;23.386;2022-09-30T05:20:17;26.17;;;15.47;;
7917;SDS011;4004;42.624;23.386;2022-09-30T05:22:45;23.27;;;16.00;;
7917;SDS011;4004;42.624;23.386;2022-09-30T05:25:11;18.43;;;15.97;;
7917;SDS011;4004;42.624;23.386;2022-09-30T05:27:38;16.60;;;14.87;;
7917;SDS011;4004;42.624;23.386;2022-09-30T05:30:05;16.60;;;14.07;;
7917;SDS011;4004;42.624;23.386;2022-09-30T05:32:33;15.23;;;13.63;;
7917;SDS011;4004;42.624;23.386;2022-09-30T05:35:01;14.20;;;12.70;;
7917;SDS011;4004;42.624;23.386;2022-09-30T05:37:28;16.73;;;12.83;;
7917;SDS011;4004;42.624;23.386;2022-09-30T05:39:55;16.27;;;12.10;;
7917;SDS011;4004;42.624;23.386;2022-09-30T05:42:23;13.83;;;11.40;;
7917;SDS011;4004;42.624;23.386;2022-09-30T05:44:50;18.57;;;12.50;;
7917;SDS011;4004;42.624;23.386;2022-09-30T05:47:16;18.03;;;13.23;;
7917;SDS011;4004;42.624;23.386;2022-09-30T05:49:43;15.53;;;13.80;;
7917;SDS011;4004;42.624;23.386;2022-09-30T05:52:11;17.60;;;14.00;;
7917;SDS011;4004;42.624;23.386;2022-09-30T05:54:39;17.70;;;13.47;;
7917;SDS011;4004;42.624;23.386;2022-09-30T05:57:06;15.40;;;13.80;;
7917;SDS011;4004;42.624;23.386;2022-09-30T05:59:33;17.90;;;14.23;;
7917;SDS011;4004;42.624;23.386;2022-09-30T06:02:01;14.90;;;13.40;;
7917;SDS011;4004;42.624;23.386;2022-09-30T06:04:29;16.20;;;14.50;;
7917;SDS011;4004;42.624;23.386;2022-09-30T06:06:55;16.10;;;14.40;;
7917;SDS011;4004;42.624;23.386;2022-09-30T06:09:23;17.07;;;15.27;;
7917;SDS011;4004;42.624;23.386;2022-09-30T06:11:50;23.27;;;16.57;;
7917;SDS011;4004;42.624;23.386;2022-09-30T06:14:24;20.63;;;16.90;;
7917;SDS011;4004;42.624;23.386;2022-09-30T06:16:52;17.90;;;16.10;;
7917;SDS011;4004;42.624;23.386;2022-09-30T06:19:19;14.63;;;13.10;;
7917;SDS011;4004;42.624;23.386;2022-09-30T06:21:46;13.47;;;12.07;;
7917;SDS011;4004;42.624;23.386;2022-09-30T06:24:13;13.17;;;11.83;;
7917;SDS011;4004;42.624;23.386;2022-09-30T06:26:41;17.67;;;11.77;;
7917;SDS011;4004;42.624;23.386;2022-09-30T06:29:08;15.40;;;10.23;;
7917;SDS011;4004;42.624;23.386;2022-09-30T06:31:35;13.03;;;10.90;;
7917;SDS011;4004;42.624;23.386;2022-09-30T06:34:02;12.43;;;11.13;;
7917;SDS011;4004;42.624;23.386;2022-09-30T06:36:29;12.67;;;11.37;;
7917;SDS011;4004;42.624;23.386;2022-09-30T06:38:58;23.83;;;11.07;;
7917;SDS011;4004;42.624;23.386;2022-09-30T06:41:25;14.57;;;11.33;;
7917;SDS011;4004;42.624;23.386;2022-09-30T06:43:54;17.10;;;11.50;;
7917;SDS011;4004;42.624;23.386;2022-09-30T06:46:22;13.23;;;9.87;;
7917;SDS011;4004;42.624;23.386;2022-09-30T06:48:52;13.13;;;10.33;;
7917;SDS011;4004;42.624;23.386;2022-09-30T06:51:20;13.07;;;9.80;;
7917;SDS011;4004;42.624;23.386;2022-09-30T06:53:49;18.70;;;10.00;;
7917;SDS011;4004;42.624;23.386;2022-09-30T06:56:17;10.80;;;9.73;;
7917;SDS011;4004;42.624;23.386;2022-09-30T06:58:43;11.40;;;10.07;;
7917;SDS011;4004;42.624;23.386;2022-09-30T07:01:11;11.47;;;10.03;;
7917;SDS011;4004;42.624;23.386;2022-09-30T07:03:40;10.27;;;9.07;;
7917;SDS011;4004;42.624;23.386;2022-09-30T07:06:08;11.10;;;9.20;;
7917;SDS011;4004;42.624;23.386;2022-09-30T07:08:36;14.50;;;9.37;;
7917;SDS011;4004;42.624;23.386;2022-09-30T07:11:05;14.37;;;10.07;;
7917;SDS011;4004;42.624;23.386;2022-09-30T07:13:36;20.67;;;12.10;;
7917;SDS011;4004;42.624;23.386;2022-09-30T07:16:04;18.67;;;11.20;;
7917;SDS011;4004;42.624;23.386;2022-09-30T07:18:32;18.47;;;11.27;;
7917;SDS011;4004;42.624;23.386;2022-09-30T07:20:59;27.20;;;10.63;;
7917;SDS011;4004;42.624;23.386;2022-09-30T07:23:26;22.73;;;11.63;;
7917;SDS011;4004;42.624;23.386;2022-09-30T07:25:53;19.53;;;13.07;;
7917;SDS011;4004;42.624;23.386;2022-09-30T07:28:21;18.93;;;14.17;;
7917;SDS011;4004;42.624;23.386;2022-09-30T07:30:51;21.60;;;12.60;;
7917;SDS011;4004;42.624;23.386;2022-09-30T07:33:20;21.63;;;13.33;;
7917;SDS011;4004;42.624;23.386;2022-09-30T07:35:52;15.93;;;14.27;;
7917;SDS011;4004;42.624;23.386;2022-09-30T07:38:20;21.40;;;15.17;;
7917;SDS011;4004;42.624;23.386;2022-09-30T07:40:54;19.43;;;15.10;;
7917;SDS011;4004;42.624;23.386;2022-09-30T07:43:23;23.20;;;17.13;;
7917;SDS011;4004;42.624;23.386;2022-09-30T07:45:52;21.27;;;15.93;;
7917;SDS011;4004;42.624;23.386;2022-09-30T07:48:20;33.23;;;16.87;;
7917;SDS011;4004;42.624;23.386;2022-09-30T07:51:15;20.73;;;16.17;;
7917;SDS011;4004;42.624;23.386;2022-09-30T07:53:45;39.53;;;16.13;;
7917;SDS011;4004;42.624;23.386;2022-09-30T07:56:13;23.97;;;16.67;;
7917;SDS011;4004;42.624;23.386;2022-09-30T07:58:41;17.37;;;14.47;;
7917;SDS011;4004;42.624;23.386;2022-09-30T08:01:08;18.20;;;13.63;;
7917;SDS011;4004;42.624;23.386;2022-09-30T08:03:36;12.63;;;8.77;;
7917;SDS011;4004;42.624;23.386;2022-09-30T08:06:04;16.87;;;11.20;;
7917;SDS011;4004;42.624;23.386;2022-09-30T08:08:34;19.67;;;12.17;;
7917;SDS011;4004;42.624;23.386;2022-09-30T08:11:02;17.57;;;10.83;;
7917;SDS011;4004;42.624;23.386;2022-09-30T08:13:29;15.60;;;9.87;;
7917;SDS011;4004;42.624;23.386;2022-09-30T08:15:56;13.47;;;9.83;;
7917;SDS011;4004;42.624;23.386;2022-09-30T08:18:23;12.17;;;7.30;;
7917;SDS011;4004;42.624;23.386;2022-09-30T08:20:50;17.20;;;8.70;;
7917;SDS011;4004;42.624;23.386;2022-09-30T08:23:16;11.87;;;6.77;;
7917;SDS011;4004;42.624;23.386;2022-09-30T08:25:44;15.77;;;6.70;;
7917;SDS011;4004;42.624;23.386;2022-09-30T08:28:11;11.55;;;6.70;;
7917;SDS011;4004;42.624;23.386;2022-09-30T08:30:38;25.40;;;8.03;;
7917;SDS011;4004;42.624;23.386;2022-09-30T08:33:06;12.53;;;7.87;;
7917;SDS011;4004;42.624;23.386;2022-09-30T08:35:33;13.87;;;7.00;;
7917;SDS011;4004;42.624;23.386;2022-09-30T08:38:01;13.60;;;5.93;;
7917;SDS011;4004;42.624;23.386;2022-09-30T08:40:28;10.10;;;6.23;;
7917;SDS011;4004;42.624;23.386;2022-09-30T08:43:05;10.27;;;6.53;;
7917;SDS011;4004;42.624;23.386;2022-09-30T08:45:43;10.67;;;7.03;;
7917;SDS011;4004;42.624;23.386;2022-09-30T08:48:21;12.43;;;6.47;;
7917;SDS011;4004;42.624;23.386;2022-09-30T08:51:00;11.87;;;7.50;;
7917;SDS011;4004;42.624;23.386;2022-09-30T08:53:33;9.80;;;6.47;;
7917;SDS011;4004;42.624;23.386;2022-09-30T08:56:04;10.70;;;5.90;;
7917;SDS011;4004;42.624;23.386;2022-09-30T08:58:34;8.23;;;5.77;;
7917;SDS011;4004;42.624;23.386;2022-09-30T09:01:05;11.10;;;6.70;;
7917;SDS011;4004;42.624;23.386;2022-09-30T09:03:42;11.10;;;6.13;;
7917;SDS011;4004;42.624;23.386;2022-09-30T09:06:15;9.17;;;6.13;;
7917;SDS011;4004;42.624;23.386;2022-09-30T09:08:52;14.30;;;6.87;;
7917;SDS011;4004;42.624;23.386;2022-09-30T09:11:35;9.97;;;6.10;;
7917;SDS011;4004;42.624;23.386;2022-09-30T09:14:17;8.23;;;6.10;;
7917;SDS011;4004;42.624;23.386;2022-09-30T09:16:56;9.77;;;5.97;;
7917;SDS011;4004;42.624;23.386;2022-09-30T09:19:34;10.13;;;5.43;;
7917;SDS011;4004;42.624;23.386;2022-09-30T09:22:03;8.90;;;5.43;;
7917;SDS011;4004;42.624;23.386;2022-09-30T09:24:32;10.13;;;5.37;;
7917;SDS011;4004;42.624;23.386;2022-09-30T09:27:09;9.20;;;5.80;;
7917;SDS011;4004;42.624;23.386;2022-09-30T09:29:48;8.23;;;5.67;;
7917;SDS011;4004;42.624;23.386;2022-09-30T09:32:25;12.07;;;6.70;;
7917;SDS011;4004;42.624;23.386;2022-09-30T09:34:54;18.20;;;6.60;;
7917;SDS011;4004;42.624;23.386;2022-09-30T09:37:27;8.33;;;5.90;;
7917;SDS011;4004;42.624;23.386;2022-09-30T09:40:21;7.50;;;5.70;;
7917;SDS011;4004;42.624;23.386;2022-09-30T09:43:03;10.50;;;6.93;;
7917;SDS011;4004;42.624;23.386;2022-09-30T09:45:39;8.77;;;5.27;;
7917;SDS011;4004;42.624;23.386;2022-09-30T09:48:10;11.87;;;5.97;;
7917;SDS011;4004;42.624;23.386;2022-09-30T09:50:43;15.63;;;6.17;;
7917;SDS011;4004;42.624;23.386;2022-09-30T09:53:20;15.00;;;5.57;;
7917;SDS011;4004;42.624;23.386;2022-09-30T09:55:59;15.77;;;5.33;;
7917;SDS011;4004;42.624;23.386;2022-09-30T09:58:28;8.23;;;4.70;;
7917;SDS011;4004;42.624;23.386;2022-09-30T10:01:04;8.70;;;4.53;;
7917;SDS011;4004;42.624;23.386;2022-09-30T10:04:03;11.93;;;4.17;;
7917;SDS011;4004;42.624;23.386;2022-09-30T10:06:47;5.83;;;4.30;;
7917;SDS011;4004;42.624;23.386;2022-09-30T10:09:22;8.77;;;4.73;;
7917;SDS011;4004;42.624;23.386;2022-09-30T10:11:51;6.70;;;4.37;;
7917;SDS011;4004;42.624;23.386;2022-09-30T10:14:43;5.43;;;4.30;;
7917;SDS011;4004;42.624;23.386;2022-09-30T10:17:18;10.53;;;4.83;;
7917;SDS011;4004;42.624;23.386;2022-09-30T10:19:48;15.93;;;6.00;;
7917;SDS011;4004;42.624;23.386;2022-09-30T10:22:17;6.57;;;4.67;;
7917;SDS011;4004;42.624;23.386;2022-09-30T10:24:45;5.13;;;3.30;;
7917;SDS011;4004;42.624;23.386;2022-09-30T10:27:24;11.55;;;4.03;;
7917;SDS011;4004;42.624;23.386;2022-09-30T10:29:52;5.67;;;3.23;;
7917;SDS011;4004;42.624;23.386;2022-09-30T10:32:20;6.60;;;3.50;;
7917;SDS011;4004;42.624;23.386;2022-09-30T10:34:53;6.00;;;2.40;;
7917;SDS011;4004;42.624;23.386;2022-09-30T10:37:25;4.43;;;2.67;;
7917;SDS011;4004;42.624;23.386;2022-09-30T10:39:54;5.83;;;2.70;;
7917;SDS011;4004;42.624;23.386;2022-09-30T10:42:25;6.03;;;3.07;;
7917;SDS011;4004;42.624;23.386;2022-09-30T10:44:55;6.23;;;3.83;;
7917;SDS011;4004;42.624;23.386;2022-09-30T10:47:27;5.00;;;3.10;;
7917;SDS011;4004;42.624;23.386;2022-09-30T10:49:56;6.83;;;3.80;;
7917;SDS011;4004;42.624;23.386;2022-09-30T10:52:30;7.27;;;3.27;;
7917;SDS011;4004;42.624;23.386;2022-09-30T10:55:00;10.60;;;3.87;;
7917;SDS011;4004;42.624;23.386;2022-09-30T10:57:33;6.40;;;3.80;;
7917;SDS011;4004;42.624;23.386;2022-09-30T11:00:03;6.77;;;4.10;;
7917;SDS011;4004;42.624;23.386;2022-09-30T11:02:35;5.57;;;3.43;;
7917;SDS011;4004;42.624;23.386;2022-09-30T11:05:10;7.80;;;3.30;;
7917;SDS011;4004;42.624;23.386;2022-09-30T11:07:44;4.97;;;3.00;;
7917;SDS011;4004;42.624;23.386;2022-09-30T11:10:23;6.50;;;2.60;;
7917;SDS011;4004;42.624;23.386;2022-09-30T11:13:01;8.67;;;3.20;;
7917;SDS011;4004;42.624;23.386;2022-09-30T11:15:34;4.83;;;3.20;;
7917;SDS011;4004;42.624;23.386;2022-09-30T11:18:13;5.73;;;3.30;;
7917;SDS011;4004;42.624;23.386;2022-09-30T11:20:48;9.23;;;3.63;;
7917;SDS011;4004;42.624;23.386;2022-09-30T11:23:19;9.33;;;3.27;;
7917;SDS011;4004;42.624;23.386;2022-09-30T11:25:55;6.77;;;3.20;;
7917;SDS011;4004;42.624;23.386;2022-09-30T11:28:32;4.87;;;3.10;;
7917;SDS011;4004;42.624;23.386;2022-09-30T11:31:11;6.50;;;2.60;;
7917;SDS011;4004;42.624;23.386;2022-09-30T11:33:53;11.13;;;2.70;;
7917;SDS011;4004;42.624;23.386;2022-09-30T11:36:31;5.00;;;2.37;;
7917;SDS011;4004;42.624;23.386;2022-09-30T11:39:11;4.60;;;2.50;;
7917;SDS011;4004;42.624;23.386;2022-09-30T11:41:53;5.47;;;2.60;;
7917;SDS011;4004;42.624;23.386;2022-09-30T11:44:26;6.90;;;2.57;;
7917;SDS011;4004;42.624;23.386;2022-09-30T11:52:51;7.70;;;2.80;;
7917;SDS011;4004;42.624;23.386;2022-09-30T11:55:32;8.77;;;3.00;;
7917;SDS011;4004;42.624;23.386;2022-09-30T11:58:08;4.40;;;2.60;;
7917;SDS011;4004;42.624;23.386;2022-09-30T12:00:37;3.67;;;2.53;;
7917;SDS011;4004;42.624;23.386;2022-09-30T12:03:10;2.47;;;2.20;;
7917;SDS011;4004;42.624;23.386;2022-09-30T12:05:45;3.70;;;2.40;;
7917;SDS011;4004;42.624;23.386;2022-09-30T12:08:15;4.00;;;2.57;;
7917;SDS011;4004;42.624;23.386;2022-09-30T12:10:45;3.77;;;2.70;;
7917;SDS011;4004;42.624;23.386;2022-09-30T12:13:16;6.40;;;3.10;;
7917;SDS011;4004;42.624;23.386;2022-09-30T12:15:47;5.27;;;2.57;;
7917;SDS011;4004;42.624;23.386;2022-09-30T12:18:18;3.57;;;2.60;;
7917;SDS011;4004;42.624;23.386;2022-09-30T12:20:50;5.00;;;2.70;;
7917;SDS011;4004;42.624;23.386;2022-09-30T12:23:24;4.90;;;2.67;;
7917;SDS011;4004;42.624;23.386;2022-09-30T12:25:57;5.93;;;3.13;;
7917;SDS011;4004;42.624;23.386;2022-09-30T12:28:27;11.13;;;2.97;;
7917;SDS011;4004;42.624;23.386;2022-09-30T12:34:21;5.10;;;2.97;;
7917;SDS011;4004;42.624;23.386;2022-09-30T12:37:11;7.47;;;2.20;;
7917;SDS011;4004;42.624;23.386;2022-09-30T12:43:09;5.27;;;2.00;;
7917;SDS011;4004;42.624;23.386;2022-09-30T12:46:08;6.33;;;2.33;;
7917;SDS011;4004;42.624;23.386;2022-09-30T12:48:41;7.27;;;2.20;;
7917;SDS011;4004;42.624;23.386;2022-09-30T12:51:18;10.33;;;3.27;;
7917;SDS011;4004;42.624;23.386;2022-09-30T12:53:50;4.97;;;2.20;;
7917;SDS011;4004;42.624;23.386;2022-09-30T12:56:24;8.67;;;2.13;;
7917;SDS011;4004;42.624;23.386;2022-09-30T12:58:53;5.63;;;1.90;;
7917;SDS011;4004;42.624;23.386;2022-09-30T13:01:22;14.23;;;2.70;;
7917;SDS011;4004;42.624;23.386;2022-09-30T13:03:51;6.33;;;2.30;;
7917;SDS011;4004;42.624;23.386;2022-09-30T13:12:26;6.90;;;2.03;;
7917;SDS011;4004;42.624;23.386;2022-09-30T13:21:21;9.10;;;2.63;;
7917;SDS011;4004;42.624;23.386;2022-09-30T13:23:49;7.63;;;2.17;;
7917;SDS011;4004;42.624;23.386;2022-09-30T13:26:34;5.70;;;1.80;;
7917;SDS011;4004;42.624;23.386;2022-09-30T13:32:06;4.00;;;1.83;;
7917;SDS011;4004;42.624;23.386;2022-09-30T13:34:47;6.23;;;1.60;;
7917;SDS011;4004;42.624;23.386;2022-09-30T13:37:30;6.80;;;2.20;;
7917;SDS011;4004;42.624;23.386;2022-09-30T13:40:02;3.77;;;1.20;;
7917;SDS011;4004;42.624;23.386;2022-09-30T13:42:34;10.37;;;2.93;;
7917;SDS011;4004;42.624;23.386;2022-09-30T13:45:09;9.33;;;3.00;;
7917;SDS011;4004;42.624;23.386;2022-09-30T13:47:42;6.00;;;1.60;;
7917;SDS011;4004;42.624;23.386;2022-09-30T13:50:12;6.33;;;2.40;;
7917;SDS011;4004;42.624;23.386;2022-09-30T13:52:41;5.67;;;2.23;;
7917;SDS011;4004;42.624;23.386;2022-09-30T13:55:13;6.13;;;1.70;;
7917;SDS011;4004;42.624;23.386;2022-09-30T13:57:47;4.63;;;1.80;;
7917;SDS011;4004;42.624;23.386;2022-09-30T14:00:23;10.27;;;3.17;;
7917;SDS011;4004;42.624;23.386;2022-09-30T14:02:58;8.87;;;3.30;;
7917;SDS011;4004;42.624;23.386;2022-09-30T14:11:34;9.13;;;1.83;;
7917;SDS011;4004;42.624;23.386;2022-09-30T14:14:20;9.43;;;1.83;;
7917;SDS011;4004;42.624;23.386;2022-09-30T14:17:05;6.00;;;1.60;;
7917;SDS011;4004;42.624;23.386;2022-09-30T14:22:41;7.33;;;1.77;;
7917;SDS011;4004;42.624;23.386;2022-09-30T14:25:10;17.53;;;3.30;;
7917;SDS011;4004;42.624;23.386;2022-09-30T14:27:42;5.97;;;1.93;;
7917;SDS011;4004;42.624;23.386;2022-09-30T14:30:19;10.23;;;1.87;;
7917;SDS011;4004;42.624;23.386;2022-09-30T14:32:47;2.53;;;1.27;;
7917;SDS011;4004;42.624;23.386;2022-09-30T14:35:28;11.47;;;2.73;;
7917;SDS011;4004;42.624;23.386;2022-09-30T14:37:58;2.53;;;1.60;;
7917;SDS011;4004;42.624;23.386;2022-09-30T14:40:28;3.13;;;1.53;;
7917;SDS011;4004;42.624;23.386;2022-09-30T14:42:57;3.13;;;1.73;;
7917;SDS011;4004;42.624;23.386;2022-09-30T14:45:31;8.40;;;1.57;;
7917;SDS011;4004;42.624;23.386;2022-09-30T14:48:01;6.03;;;1.50;;
7917;SDS011;4004;42.624;23.386;2022-09-30T14:50:34;3.83;;;1.80;;
7917;SDS011;4004;42.624;23.386;2022-09-30T14:53:21;2.47;;;1.17;;
7917;SDS011;4004;42.624;23.386;2022-09-30T14:55:50;2.70;;;1.30;;
7917;SDS011;4004;42.624;23.386;2022-09-30T14:58:19;3.73;;;1.63;;
7917;SDS011;4004;42.624;23.386;2022-09-30T15:01:02;2.67;;;1.30;;
7917;SDS011;4004;42.624;23.386;2022-09-30T15:03:32;7.90;;;2.47;;
7917;SDS011;4004;42.624;23.386;2022-09-30T15:06:15;8.20;;;2.03;;
7917;SDS011;4004;42.624;23.386;2022-09-30T15:08:45;7.53;;;1.80;;
7917;SDS011;4004;42.624;23.386;2022-09-30T15:11:17;3.47;;;1.90;;
7917;SDS011;4004;42.624;23.386;2022-09-30T15:13:45;5.67;;;2.13;;
7917;SDS011;4004;42.624;23.386;2022-09-30T15:16:22;9.60;;;1.97;;
7917;SDS011;4004;42.624;23.386;2022-09-30T15:18:49;2.67;;;1.63;;
7917;SDS011;4004;42.624;23.386;2022-09-30T15:21:18;16.27;;;2.33;;
7917;SDS011;4004;42.624;23.386;2022-09-30T15:23:47;13.10;;;5.93;;
7917;SDS011;4004;42.624;23.386;2022-09-30T15:26:16;8.67;;;2.40;;
7917;SDS011;4004;42.624;23.386;2022-09-30T15:28:44;12.13;;;6.57;;
7917;SDS011;4004;42.624;23.386;2022-09-30T15:31:15;10.13;;;2.47;;
7917;SDS011;4004;42.624;23.386;2022-09-30T15:33:52;8.07;;;2.97;;
7917;SDS011;4004;42.624;23.386;2022-09-30T15:36:27;20.97;;;3.80;;
7917;SDS011;4004;42.624;23.386;2022-09-30T15:38:54;10.40;;;2.60;;
7917;SDS011;4004;42.624;23.386;2022-09-30T15:41:21;10.30;;;2.60;;
7917;SDS011;4004;42.624;23.386;2022-09-30T15:43:49;10.33;;;2.60;;
7917;SDS011;4004;42.624;23.386;2022-09-30T15:46:27;9.43;;;3.17;;
7917;SDS011;4004;42.624;23.386;2022-09-30T15:48:58;17.53;;;3.20;;
7917;SDS011;4004;42.624;23.386;2022-09-30T15:51:34;60.20;;;45.63;;
7917;SDS011;4004;42.624;23.386;2022-09-30T15:56:55;12.43;;;3.10;;
7917;SDS011;4004;42.624;23.386;2022-09-30T15:59:24;9.43;;;3.20;;
7917;SDS011;4004;42.624;23.386;2022-09-30T16:02:31;10.00;;;2.80;;